Ain Oussera Airport

DAAQ · Djelfa, 阿尔及利亚

使用的METAR站距离机场122 km。
罗盘
风向 的 风向 330° Ain Oussera Airport 9L/27R
风: 10 kt, 3 beaufort

5 kt

9 kt
改变
0 ft 2.000 4.000 6.000 8.000 10.000
Cloud Cloud
FEW 2.600
Cloud Cloud Cloud Cloud Cloud Cloud
BKN 10.000
METAR DAAD 241600Z 33010KT 9999 FEW026 BKN100 33/07 Q1010

METAR Ain Oussera Airport - DAAQ

Ain Oussera Airport是,阿尔及利亚中的小机场。 该机场位于纬度35,52540和经度2,87871。 该机场有2条跑道: 9L/27R 和 9R/27L. 本场的ICAO机场代码为DAAQ。 机场在Alger FIR中。

该航空气象观测是针对Bou Saada Airport在2024年6月24日 17:00, 当地时间进行的。

机场观察

风向为330°,速度为10 kt。

可见度为10 km 或者更多。

有几云在2.600 ft的高度 和 碎云在10.000 ft的高度。 破损或更高的上限为10.000 ft。

温度和风寒是33 °C。 露点为7 °C,相对湿度为20%。 海平面上的气压为1010 hPa (QNH)。

白天

今天,太阳从05:34升起,在20:07降落。 这适用于Ain Oussera Airport,世界夏令时可能有所不同。 当地时间与世界标准时间之间的时差为+1 小时。 夏令时目前正在进行中。

公司介绍

我们没有关于这个机场的公司信息。

体会

到Vliegles.nl去找飞行课程,跳伞和其他飞行体验。 浏览页面,了解Ain Oussera Airport附近所有可用的活动。 你也可以使用搜索功能来寻找你所在地附近的特定飞行课程、跳伞或其他飞行体验。

跑道

Id 标题 侧风 逆风 侧风 %
9L/27R 090°-270° 9 kt 5 kt 87 %
9R/27L 090°-270° 9 kt 5 kt 87 %

逆风成分最大的方向会被突出显示,并用于横风计算。 这并不一定意味着这个方向在使用。

乌云

2.600 ft FEW 几云
10.000 ft BKN 碎云

温度 & 天气

温度 33 °C
露点 7 °C
相对湿度 20%
Kp-index 1 (0-9)

白天

日出
05:29
中午
12:45
日落
20:01 (2:38)

小工具

你想在你的网站上有一个关于Ain Oussera Airport的当前航空天气(METAR)的小部件吗?

显示HTML代码
报告变更